createdAt,value
2019-02-16T00:02:08.139Z,82.10
2019-02-16T00:06:13.500Z,82.10
2019-02-16T00:10:18.866Z,82.60
2019-02-16T00:14:24.228Z,82.80
2019-02-16T00:18:29.879Z,83.50
2019-02-16T00:22:35.586Z,83.20
2019-02-16T00:26:40.849Z,82.70
2019-02-16T00:30:46.448Z,83.10
2019-02-16T00:34:51.860Z,83.30
2019-02-16T00:38:57.373Z,83.90
2019-02-16T00:43:02.929Z,84.90
2019-02-16T00:47:08.370Z,83.10
2019-02-16T00:51:14.163Z,83.30
2019-02-16T00:55:20.496Z,85.30
2019-02-16T00:59:27.828Z,86.80
2019-02-16T01:03:33.085Z,86.90
2019-02-16T01:07:38.358Z,86.80
2019-02-16T01:11:43.728Z,86.30
2019-02-16T01:15:49.082Z,86.30
2019-02-16T01:19:54.784Z,85.60
2019-02-16T01:24:00.149Z,85.60
2019-02-16T01:28:05.495Z,86.40
2019-02-16T01:32:11.012Z,86.50
2019-02-16T01:36:16.460Z,87.20
2019-02-16T01:40:22.033Z,88.10
2019-02-16T01:44:27.850Z,88.60
2019-02-16T01:48:33.227Z,88.70
2019-02-16T01:52:38.667Z,89.40
2019-02-16T01:56:44.115Z,88.10
2019-02-16T02:00:49.579Z,87.90
2019-02-16T02:04:54.894Z,89.60
2019-02-16T02:09:00.377Z,89.60
2019-02-16T02:13:05.850Z,89.80
2019-02-16T02:17:11.337Z,90.10
2019-02-16T02:21:17.086Z,90.00
2019-02-16T02:25:22.464Z,90.70
2019-02-16T02:29:28.169Z,91.10
2019-02-16T02:33:33.614Z,91.50
2019-02-16T02:37:38.985Z,92.10
2019-02-16T02:41:44.391Z,92.10
2019-02-16T02:45:49.588Z,92.50
2019-02-16T02:49:55.042Z,92.70
2019-02-16T02:54:00.584Z,93.40
2019-02-16T02:58:05.973Z,94.10
2019-02-16T03:02:11.321Z,94.30
2019-02-16T03:06:16.690Z,94.50
2019-02-16T03:10:22.384Z,94.80
2019-02-16T03:14:27.783Z,95.00
2019-02-16T03:18:33.098Z,95.50
2019-02-16T03:23:19.928Z,95.30
2019-02-16T03:28:32.246Z,96.40
2019-02-16T03:33:24.837Z,96.10
2019-02-16T03:38:00.442Z,97.00
2019-02-16T03:42:06.482Z,96.90
2019-02-16T03:46:12.023Z,97.30
2019-02-16T03:50:17.916Z,97.00
2019-02-16T03:54:23.430Z,97.50
2019-02-16T03:58:30.217Z,96.90
2019-02-16T04:02:35.569Z,96.60
2019-02-16T04:06:40.967Z,96.60
2019-02-16T04:10:46.299Z,97.20
2019-02-16T04:14:51.673Z,97.20
2019-02-16T04:18:57.304Z,97.70
2019-02-16T04:23:02.778Z,97.70
2019-02-16T04:27:08.216Z,97.80
2019-02-16T04:31:13.571Z,97.90
2019-02-16T04:35:18.969Z,97.70
2019-02-16T04:39:24.697Z,97.90
2019-02-16T04:43:30.146Z,97.70
2019-02-16T04:47:35.818Z,98.00
2019-02-16T04:51:41.450Z,97.50
2019-02-16T04:55:47.078Z,97.70
2019-02-16T04:59:52.569Z,97.30
2019-02-16T05:03:57.851Z,97.00
2019-02-16T05:08:03.148Z,97.20
2019-02-16T05:12:08.466Z,97.30
2019-02-16T05:16:13.948Z,97.80
2019-02-16T05:20:19.293Z,97.30
2019-02-16T05:24:24.586Z,97.80
2019-02-16T05:28:29.986Z,98.10
2019-02-16T05:32:35.612Z,97.30
2019-02-16T05:36:41.040Z,97.60
2019-02-16T05:40:46.768Z,97.80
2019-02-16T05:44:52.047Z,97.20
2019-02-16T05:48:57.497Z,97.30
2019-02-16T05:53:02.876Z,97.80
2019-02-16T05:57:08.202Z,97.90
2019-02-16T06:01:13.654Z,98.10
2019-02-16T06:05:18.907Z,98.00
2019-02-16T06:09:24.345Z,98.20
2019-02-16T06:13:29.773Z,98.60
2019-02-16T06:17:35.145Z,98.70
2019-02-16T06:21:40.631Z,98.90
2019-02-16T06:25:45.988Z,99.10
2019-02-16T06:29:53.477Z,98.90
2019-02-16T06:33:58.929Z,99.40
2019-02-16T06:38:04.651Z,99.20
2019-02-16T06:42:09.933Z,99.80
2019-02-16T06:46:15.269Z,99.40
2019-02-16T06:50:20.723Z,99.30
2019-02-16T06:54:26.090Z,99.90
2019-02-16T06:58:31.553Z,99.90
2019-02-16T07:02:37.129Z,99.70
2019-02-16T07:06:47.020Z,99.50
2019-02-16T07:10:52.883Z,99.80
2019-02-16T07:14:58.175Z,99.50
2019-02-16T07:19:28.833Z,99.20
2019-02-16T07:23:34.480Z,99.30
2019-02-16T07:27:39.981Z,98.10
2019-02-16T07:31:45.751Z,98.10
2019-02-16T07:35:51.335Z,98.50
2019-02-16T07:39:56.595Z,98.10
2019-02-16T07:44:23.726Z,97.70
2019-02-16T07:48:37.327Z,97.70
2019-02-16T07:52:58.339Z,97.40
2019-02-16T07:57:19.367Z,96.70
2019-02-16T08:01:29.852Z,96.70
2019-02-16T08:05:43.255Z,96.10
2019-02-16T08:10:06.778Z,95.50
2019-02-16T08:14:19.398Z,95.00
2019-02-16T08:18:30.980Z,96.00
2019-02-16T08:22:55.364Z,94.00
2019-02-16T08:27:22.672Z,94.70
2019-02-16T08:31:40.543Z,94.00
2019-02-16T08:36:17.540Z,93.40
2019-02-16T08:40:57.462Z,93.20
2019-02-16T08:45:09.346Z,92.80
2019-02-16T08:49:24.950Z,92.10
2019-02-16T08:53:50.176Z,92.30
2019-02-16T08:58:12.194Z,90.30
2019-02-16T09:02:45.526Z,90.60
2019-02-16T09:07:21.874Z,90.40
2019-02-16T09:11:45.315Z,90.30
2019-02-16T09:15:56.564Z,91.20
2019-02-16T09:20:26.879Z,87.40
2019-02-16T09:24:42.265Z,90.60
2019-02-16T09:29:05.378Z,88.10
2019-02-16T09:33:28.836Z,84.70
2019-02-16T09:37:42.766Z,81.90
2019-02-16T09:41:58.971Z,84.20
2019-02-16T09:46:22.190Z,82.80
2019-02-16T09:50:42.953Z,80.10
2019-02-16T09:55:10.269Z,81.00
2019-02-16T09:59:28.675Z,78.70
2019-02-16T10:03:43.869Z,78.70
2019-02-16T10:08:15.732Z,77.40
2019-02-16T10:12:29.193Z,79.30
2019-02-16T10:16:59.443Z,75.70
2019-02-16T10:21:22.525Z,75.70
2019-02-16T10:25:56.152Z,77.70
2019-02-16T10:30:11.487Z,77.80
2019-02-16T10:34:27.329Z,74.30
2019-02-16T10:38:40.484Z,74.30
2019-02-16T10:43:16.805Z,71.60
2019-02-16T10:47:44.140Z,71.80
2019-02-16T10:51:55.783Z,72.00
2019-02-16T10:56:26.019Z,69.00
2019-02-16T11:00:49.998Z,68.30
2019-02-16T11:05:13.847Z,65.20
2019-02-16T11:09:38.234Z,63.90
2019-02-16T11:14:05.537Z,68.20
2019-02-16T11:18:23.294Z,65.10
2019-02-16T11:22:44.073Z,66.10
2019-02-16T11:27:08.744Z,63.30
2019-02-16T11:31:25.007Z,62.30
2019-02-16T11:35:51.963Z,64.90
2019-02-16T11:40:12.096Z,60.50
2019-02-16T11:44:35.193Z,60.50
2019-02-16T11:49:02.610Z,64.00
2019-02-16T11:53:41.992Z,61.40
2019-02-16T11:58:06.891Z,61.10
2019-02-16T12:02:40.202Z,64.70
2019-02-16T12:07:04.507Z,60.90
2019-02-16T12:11:21.993Z,59.90
2019-02-16T12:15:45.342Z,61.20
2019-02-16T12:20:11.089Z,59.20
2019-02-16T12:24:38.238Z,61.30
2019-02-16T12:28:57.922Z,60.50
2019-02-16T12:33:20.968Z,59.00
2019-02-16T12:37:37.646Z,58.00
2019-02-16T12:42:01.043Z,57.30
2019-02-16T12:46:37.483Z,58.60
2019-02-16T12:51:00.423Z,56.90
2019-02-16T12:55:23.945Z,54.80
2019-02-16T12:59:47.018Z,50.00
2019-02-16T13:04:06.851Z,49.10
2019-02-16T13:08:37.153Z,50.50
2019-02-16T13:13:01.739Z,52.20
2019-02-16T13:17:19.874Z,48.70
2019-02-16T13:21:36.128Z,49.60
2019-02-16T13:26:00.139Z,48.60
2019-02-16T13:30:27.365Z,47.50
2019-02-16T13:34:54.456Z,46.60
2019-02-16T13:39:30.757Z,47.80
2019-02-16T13:44:10.369Z,47.00
2019-02-16T13:48:27.015Z,46.90
2019-02-16T13:52:47.538Z,49.90
2019-02-16T13:57:09.028Z,46.80
2019-02-16T14:01:31.334Z,48.50
2019-02-16T14:05:42.804Z,48.80
2019-02-16T14:10:05.908Z,49.70
2019-02-16T14:14:30.070Z,49.60
2019-02-16T14:18:35.712Z,48.90
2019-02-16T14:22:41.056Z,46.90
2019-02-16T14:26:46.513Z,47.90
2019-02-16T14:30:51.900Z,46.90
2019-02-16T14:34:57.368Z,48.70
2019-02-16T14:39:09.824Z,49.70
2019-02-16T14:43:15.114Z,48.10
2019-02-16T14:47:24.108Z,48.70
2019-02-16T14:51:29.985Z,49.80
2019-02-16T14:55:35.755Z,50.80
2019-02-16T14:59:41.012Z,50.10
2019-02-16T15:03:46.446Z,50.50
2019-02-16T15:07:52.152Z,53.10
2019-02-16T15:11:57.986Z,46.90
2019-02-16T15:16:03.434Z,48.70
2019-02-16T15:20:11.236Z,45.20
2019-02-16T15:24:16.617Z,49.90
2019-02-16T15:28:22.058Z,46.20
2019-02-16T15:32:27.257Z,48.20
2019-02-16T15:36:32.634Z,47.20
2019-02-16T15:40:38.073Z,48.80
2019-02-16T15:44:43.470Z,48.10
2019-02-16T15:48:48.859Z,48.50
2019-02-16T15:52:54.139Z,49.00
2019-02-16T15:56:59.701Z,53.70
2019-02-16T16:01:05.186Z,53.50
2019-02-16T16:05:10.611Z,53.10
2019-02-16T16:09:34.559Z,57.80
2019-02-16T16:14:02.047Z,55.80
2019-02-16T16:18:41.638Z,60.40
2019-02-16T16:23:04.895Z,64.60
2019-02-16T16:27:32.079Z,66.00
2019-02-16T16:31:48.381Z,66.80
2019-02-16T16:36:06.228Z,71.40
2019-02-16T16:40:22.862Z,73.30
2019-02-16T16:44:50.321Z,74.80
2019-02-16T16:49:03.205Z,75.70
2019-02-16T16:53:24.166Z,76.60
2019-02-16T16:57:35.038Z,78.30
2019-02-16T17:02:00.375Z,78.60
2019-02-16T17:06:17.540Z,81.60
2019-02-16T17:10:41.234Z,81.80
2019-02-16T17:15:05.557Z,84.20
2019-02-16T17:19:32.587Z,85.60
2019-02-16T17:23:45.139Z,84.50
2019-02-16T17:28:03.988Z,85.70
2019-02-16T17:32:17.868Z,86.40
2019-02-16T17:36:42.205Z,88.90
2019-02-16T17:41:21.630Z,88.90
2019-02-16T17:45:44.560Z,89.90
2019-02-16T17:50:14.924Z,90.20
2019-02-16T17:54:49.689Z,89.70
2019-02-16T17:59:26.365Z,89.80
2019-02-16T18:03:44.207Z,91.10
2019-02-16T18:08:17.989Z,90.80
2019-02-16T18:12:37.437Z,91.40
2019-02-16T18:17:00.471Z,91.80
2019-02-16T18:21:24.734Z,91.00
2019-02-16T18:25:49.158Z,92.50
2019-02-16T18:30:25.483Z,92.00
2019-02-16T18:34:39.242Z,92.00
2019-02-16T18:38:50.674Z,92.80
2019-02-16T18:43:15.176Z,93.90
2019-02-16T18:47:27.521Z,93.00
2019-02-16T18:51:52.183Z,93.50
2019-02-16T18:56:19.431Z,93.40
2019-02-16T19:00:31.084Z,93.60
2019-02-16T19:04:51.796Z,94.80
2019-02-16T19:09:04.061Z,95.00
2019-02-16T19:13:17.293Z,95.00
2019-02-16T19:17:34.764Z,94.60
2019-02-16T19:21:59.125Z,94.30
2019-02-16T19:26:22.478Z,94.70
2019-02-16T19:30:35.477Z,95.30
2019-02-16T19:34:56.257Z,95.00
2019-02-16T19:39:26.354Z,95.70
2019-02-16T19:43:56.766Z,95.60
2019-02-16T19:48:12.843Z,96.00
2019-02-16T19:52:28.826Z,95.90
2019-02-16T19:56:42.817Z,95.40
2019-02-16T20:00:58.192Z,96.30
2019-02-16T20:05:21.121Z,96.80
2019-02-16T20:09:32.451Z,96.70
2019-02-16T20:13:50.787Z,97.10
2019-02-16T20:18:05.660Z,97.40
2019-02-16T20:22:28.932Z,96.60
2019-02-16T20:27:07.608Z,96.40
2019-02-16T20:31:40.865Z,97.60
2019-02-16T20:36:07.947Z,97.30
2019-02-16T20:40:31.042Z,98.00
2019-02-16T20:44:45.331Z,97.20
2019-02-16T20:49:10.580Z,98.00
2019-02-16T20:53:44.234Z,98.00
2019-02-16T20:57:57.251Z,97.50
2019-02-16T21:02:24.435Z,97.70
2019-02-16T21:06:52.683Z,97.10
2019-02-16T21:11:18.138Z,99.10
2019-02-16T21:15:34.577Z,98.80
2019-02-16T21:20:01.848Z,99.10
2019-02-16T21:24:24.700Z,98.40
2019-02-16T21:28:54.760Z,99.30
2019-02-16T21:33:22.158Z,99.90
2019-02-16T21:37:46.406Z,99.10
2019-02-16T21:42:19.678Z,99.60
2019-02-16T21:46:43.926Z,99.90
2019-02-16T21:51:14.515Z,99.90
2019-02-16T21:55:43.197Z,99.20
2019-02-16T22:00:03.482Z,99.90
2019-02-16T22:04:30.783Z,99.50
2019-02-16T22:08:43.063Z,99.30
2019-02-16T22:13:05.964Z,99.90
2019-02-16T22:17:11.405Z,99.90
2019-02-16T22:21:16.776Z,99.90
2019-02-16T22:25:22.025Z,99.90
2019-02-16T22:29:27.527Z,99.90
2019-02-16T22:33:33.164Z,99.90
2019-02-16T22:37:38.887Z,99.90
2019-02-16T22:41:44.226Z,99.90
2019-02-16T22:45:49.509Z,99.90
2019-02-16T22:49:55.281Z,99.90
2019-02-16T22:54:01.060Z,99.90
2019-02-16T22:58:06.386Z,99.90
2019-02-16T23:02:13.015Z,99.90
2019-02-16T23:06:18.484Z,99.90
2019-02-16T23:10:23.969Z,99.90
2019-02-16T23:14:30.022Z,99.90
2019-02-16T23:18:35.447Z,99.90
2019-02-16T23:22:40.865Z,99.90
2019-02-16T23:26:46.284Z,99.90
2019-02-16T23:30:51.810Z,99.90
2019-02-16T23:34:57.482Z,99.90
2019-02-16T23:39:04.794Z,99.90
2019-02-16T23:43:10.190Z,99.90
2019-02-16T23:47:15.710Z,99.90
2019-02-16T23:51:21.206Z,99.90
2019-02-16T23:55:27.190Z,99.90
2019-02-16T23:59:32.509Z,99.90
